createdAt,value
2018-02-22T00:01:07.706Z,102650.33
2018-02-22T00:03:35.224Z,102644.75
2018-02-22T00:06:02.727Z,102641.73
2018-02-22T00:08:30.221Z,102643.42
2018-02-22T00:10:57.735Z,102642.98
2018-02-22T00:13:25.217Z,102642.98
2018-02-22T00:15:52.731Z,102644.28
2018-02-22T00:18:20.231Z,102645.55
2018-02-22T00:20:47.723Z,102647.28
2018-02-22T00:23:15.230Z,102639.98
2018-02-22T00:25:42.707Z,102642.97
2018-02-22T00:28:10.200Z,102640.80
2018-02-22T00:30:37.680Z,102647.22
2018-02-22T00:33:05.176Z,102635.16
2018-02-22T00:35:32.692Z,102632.16
2018-02-22T00:38:00.194Z,102630.42
2018-02-22T00:40:27.687Z,102635.15
2018-02-22T00:42:55.179Z,102628.27
2018-02-22T00:45:22.663Z,102622.22
2018-02-22T00:47:50.160Z,102622.23
2018-02-22T00:50:17.647Z,102621.78
2018-02-22T00:52:45.156Z,102617.91
2018-02-22T00:55:12.644Z,102609.30
2018-02-22T00:57:40.127Z,102613.13
2018-02-22T01:00:07.614Z,102608.84
2018-02-22T01:02:35.108Z,102610.09
2018-02-22T01:05:02.599Z,102604.50
2018-02-22T01:07:30.087Z,102601.91
2018-02-22T01:09:57.587Z,102601.03
2018-02-22T01:12:25.085Z,102603.58
2018-02-22T01:14:52.559Z,102600.56
2018-02-22T01:17:20.051Z,102599.68
2018-02-22T01:19:47.544Z,102598.39
2018-02-22T01:22:15.040Z,102596.25
2018-02-22T01:24:42.529Z,102597.98
2018-02-22T01:27:10.032Z,102587.66
2018-02-22T01:29:37.506Z,102588.09
2018-02-22T01:32:05.024Z,102592.80
2018-02-22T01:34:32.508Z,102591.07
2018-02-22T01:37:00.023Z,102590.16
2018-02-22T01:39:27.506Z,102579.41
2018-02-22T01:41:54.999Z,102577.67
2018-02-22T01:44:22.491Z,102583.67
2018-02-22T01:46:49.976Z,102576.76
2018-02-22T01:49:17.472Z,102576.30
2018-02-22T01:51:44.967Z,102579.27
2018-02-22T01:54:12.494Z,102576.65
2018-02-22T01:56:39.984Z,102575.78
2018-02-22T01:59:07.463Z,102570.59
2018-02-22T02:01:34.960Z,102575.30
2018-02-22T02:04:02.458Z,102567.98
2018-02-22T02:06:29.947Z,102573.55
2018-02-22T02:08:57.435Z,102570.06
2018-02-22T02:11:24.933Z,102567.06
2018-02-22T02:13:52.431Z,102567.05
2018-02-22T02:16:19.950Z,102565.71
2018-02-22T02:18:47.431Z,102553.25
2018-02-22T02:21:14.927Z,102551.09
2018-02-22T02:23:42.427Z,102552.81
2018-02-22T02:26:09.916Z,102551.08
2018-02-22T02:28:37.404Z,102551.95
2018-02-22T02:31:04.898Z,102551.93
2018-02-22T02:33:32.492Z,102548.91
2018-02-22T02:35:59.980Z,102546.75
2018-02-22T02:38:27.473Z,102549.32
2018-02-22T02:40:54.971Z,102542.45
2018-02-22T02:43:22.473Z,102531.27
2018-02-22T02:45:49.960Z,102527.00
2018-02-22T02:48:17.452Z,102526.98
2018-02-22T02:50:44.931Z,102520.98
2018-02-22T02:53:12.436Z,102527.40
2018-02-22T02:55:39.922Z,102518.77
2018-02-22T02:58:07.419Z,102523.08
2018-02-22T03:00:34.896Z,102520.94
2018-02-22T03:03:02.393Z,102522.65
2018-02-22T03:05:29.879Z,102520.54
2018-02-22T03:07:57.373Z,102513.23
2018-02-22T03:10:24.867Z,102516.70
2018-02-22T03:12:52.379Z,102514.60
2018-02-22T03:15:19.876Z,102510.30
2018-02-22T03:17:47.362Z,102508.17
2018-02-22T03:20:14.858Z,102517.61
2018-02-22T03:22:42.354Z,102507.74
2018-02-22T03:25:09.858Z,102509.50
2018-02-22T03:27:37.339Z,102507.76
2018-02-22T03:30:04.837Z,102506.47
2018-02-22T03:32:32.353Z,102505.63
2018-02-22T03:34:59.847Z,102501.75
2018-02-22T03:37:27.324Z,102499.59
2018-02-22T03:39:54.819Z,102491.47
2018-02-22T03:42:22.326Z,102498.31
2018-02-22T03:44:49.820Z,102502.17
2018-02-22T03:47:17.306Z,102491.86
2018-02-22T03:49:44.799Z,102497.44
2018-02-22T03:52:12.297Z,102491.41
2018-02-22T03:54:39.783Z,102498.70
2018-02-22T03:57:07.270Z,102500.00
2018-02-22T04:02:04.806Z,102502.13
2018-02-22T04:04:32.287Z,102507.72
2018-02-22T04:06:59.788Z,102502.98
2018-02-22T04:09:27.283Z,102498.67
2018-02-22T04:11:54.785Z,102501.70
2018-02-22T04:14:22.290Z,102506.41
2018-02-22T04:16:49.734Z,102499.52
2018-02-22T04:19:17.271Z,102499.52
2018-02-22T04:21:44.764Z,102501.64
2018-02-22T04:24:12.258Z,102507.20
2018-02-22T04:26:39.751Z,102510.12
2018-02-22T04:29:07.267Z,102504.92
2018-02-22T04:31:34.747Z,102508.25
2018-02-22T04:34:02.234Z,102509.50
2018-02-22T04:36:29.744Z,102513.30
2018-02-22T04:38:57.231Z,102504.27
2018-02-22T04:41:24.758Z,102505.98
2018-02-22T04:43:52.280Z,102503.34
2018-02-22T04:46:19.743Z,102501.63
2018-02-22T04:48:47.239Z,102496.85
2018-02-22T04:51:14.746Z,102492.52
2018-02-22T04:53:42.227Z,102487.80
2018-02-22T04:56:09.739Z,102489.95
2018-02-22T04:58:37.259Z,102492.91
2018-02-22T05:01:04.718Z,102497.59
2018-02-22T05:03:32.259Z,102493.23
2018-02-22T05:05:59.751Z,102493.23
2018-02-22T05:08:27.267Z,102493.21
2018-02-22T05:10:54.763Z,102494.08
2018-02-22T05:13:22.266Z,102491.05
2018-02-22T05:15:49.747Z,102498.77
2018-02-22T05:18:17.236Z,102494.89
2018-02-22T05:20:44.743Z,102484.60
2018-02-22T05:23:12.220Z,102485.02
2018-02-22T05:25:39.720Z,102483.73
2018-02-22T05:28:07.227Z,102480.77
2018-02-22T05:30:34.716Z,102479.05
2018-02-22T05:33:02.211Z,102483.77
2018-02-22T05:35:29.708Z,102486.80
2018-02-22T05:37:57.194Z,102487.63
2018-02-22T05:40:24.689Z,102486.34
2018-02-22T05:42:52.188Z,102482.51
2018-02-22T05:45:19.667Z,102479.08
2018-02-22T05:47:47.180Z,102479.54
2018-02-22T05:50:14.663Z,102479.52
2018-02-22T05:52:42.143Z,102477.41
2018-02-22T05:55:09.639Z,102476.55
2018-02-22T05:57:37.118Z,102477.42
2018-02-22T06:00:04.620Z,102482.60
2018-02-22T06:02:32.118Z,102483.89
2018-02-22T06:04:59.607Z,102485.20
2018-02-22T06:07:27.082Z,102478.75
2018-02-22T06:09:54.545Z,102479.63
2018-02-22T06:12:22.061Z,102473.64
2018-02-22T06:14:49.565Z,102482.66
2018-02-22T06:17:17.056Z,102479.23
2018-02-22T06:19:44.547Z,102474.92
2018-02-22T06:22:12.038Z,102474.52
2018-02-22T06:24:39.551Z,102479.67
2018-02-22T06:27:07.059Z,102481.37
2018-02-22T06:29:34.508Z,102478.39
2018-02-22T06:32:02.046Z,102474.55
2018-02-22T06:34:29.548Z,102477.12
2018-02-22T06:36:57.023Z,102480.53
2018-02-22T06:39:24.511Z,102477.54
2018-02-22T06:41:52.003Z,102479.23
2018-02-22T06:44:19.514Z,102475.38
2018-02-22T06:46:47.039Z,102486.11
2018-02-22T06:49:14.509Z,102480.11
2018-02-22T06:51:42.003Z,102478.82
2018-02-22T06:54:09.506Z,102485.67
2018-02-22T06:56:36.999Z,102481.80
2018-02-22T06:59:04.476Z,102481.81
2018-02-22T07:01:31.966Z,102480.52
2018-02-22T07:03:59.481Z,102478.33
2018-02-22T07:06:26.961Z,102476.19
2018-02-22T07:08:54.441Z,102475.30
2018-02-22T07:11:21.946Z,102472.30
2018-02-22T07:13:49.452Z,102476.59
2018-02-22T07:16:16.983Z,102475.70
2018-02-22T07:18:44.489Z,102480.83
2018-02-22T07:21:12.001Z,102478.70
2018-02-22T07:23:39.503Z,102481.68
2018-02-22T07:26:07.011Z,102483.81
2018-02-22T07:28:34.524Z,102482.95
2018-02-22T07:31:02.033Z,102482.52
2018-02-22T07:33:29.575Z,102478.25
2018-02-22T07:35:57.086Z,102478.23
2018-02-22T07:38:24.577Z,102477.80
2018-02-22T07:40:52.066Z,102483.80
2018-02-22T07:43:19.556Z,102482.08
2018-02-22T07:45:47.051Z,102479.08
2018-02-22T07:48:14.542Z,102478.63
2018-02-22T07:50:42.035Z,102482.96
2018-02-22T07:53:09.523Z,102485.97
2018-02-22T07:55:37.021Z,102485.98
2018-02-22T07:58:04.536Z,102493.30
2018-02-22T08:00:32.031Z,102489.49
2018-02-22T08:02:59.521Z,102488.24
2018-02-22T08:05:27.032Z,102486.98
2018-02-22T08:07:54.537Z,102485.33
2018-02-22T08:10:22.029Z,102486.20
2018-02-22T08:12:49.547Z,102488.83
2018-02-22T08:15:17.046Z,102488.87
2018-02-22T08:17:44.600Z,102483.73
2018-02-22T08:20:12.090Z,102490.20
2018-02-22T08:22:39.587Z,102490.69
2018-02-22T08:25:07.080Z,102490.73
2018-02-22T08:27:34.563Z,102492.92
2018-02-22T08:30:02.051Z,102491.65
2018-02-22T08:32:29.534Z,102489.94
2018-02-22T08:34:57.043Z,102486.97
2018-02-22T08:37:24.527Z,102490.84
2018-02-22T08:39:52.038Z,102484.44
2018-02-22T08:42:19.552Z,102487.90
2018-02-22T08:44:47.062Z,102488.78
2018-02-22T08:47:14.580Z,102481.08
2018-02-22T08:49:42.059Z,102483.26
2018-02-22T08:52:09.555Z,102486.72
2018-02-22T08:54:37.046Z,102482.91
2018-02-22T08:57:04.536Z,102478.66
2018-02-22T08:59:34.096Z,102485.97
2018-02-22T09:02:01.585Z,102484.73
2018-02-22T09:04:29.082Z,102486.02
2018-02-22T09:06:56.571Z,102482.64
2018-02-22T09:09:24.059Z,102480.96
2018-02-22T09:11:51.555Z,102486.55
2018-02-22T09:14:19.043Z,102488.73
2018-02-22T09:16:46.529Z,102478.47
2018-02-22T09:19:14.038Z,102482.36
2018-02-22T09:21:41.534Z,102489.69
2018-02-22T09:24:09.075Z,102488.42
2018-02-22T09:26:36.643Z,102491.88
2018-02-22T09:29:04.229Z,102492.34
2018-02-22T09:31:31.732Z,102500.53
2018-02-22T09:33:59.225Z,102498.40
2018-02-22T09:36:26.721Z,102501.88
2018-02-22T09:38:54.239Z,102500.61
2018-02-22T09:41:21.735Z,102503.19
2018-02-22T09:43:49.318Z,102504.50
2018-02-22T09:46:16.814Z,102499.81
2018-02-22T09:48:44.340Z,102502.83
2018-02-22T09:51:11.867Z,102500.27
2018-02-22T09:53:39.360Z,102505.88
2018-02-22T09:56:06.851Z,102507.16
2018-02-22T09:58:34.359Z,102503.75
2018-02-22T10:01:01.860Z,102502.48
2018-02-22T10:03:29.360Z,102494.74
2018-02-22T10:05:56.867Z,102500.38
2018-02-22T10:08:24.388Z,102502.55
2018-02-22T10:10:51.910Z,102492.23
2018-02-22T10:13:19.546Z,102490.52
2018-02-22T10:15:47.120Z,102483.66
2018-02-22T10:18:14.685Z,102486.67
2018-02-22T10:20:42.193Z,102484.53
2018-02-22T10:23:09.695Z,102490.14
2018-02-22T10:25:37.182Z,102486.71
2018-02-22T10:28:04.813Z,102484.99
2018-02-22T10:30:32.328Z,102486.73
2018-02-22T10:32:59.861Z,102481.17
2018-02-22T10:35:27.394Z,102478.14
2018-02-22T10:37:54.886Z,102482.04
2018-02-22T10:40:22.428Z,102486.35
2018-02-22T10:42:49.983Z,102480.73
2018-02-22T10:45:17.463Z,102484.19
2018-02-22T10:47:44.958Z,102480.77
2018-02-22T10:50:12.457Z,102475.58
2018-02-22T10:52:39.969Z,102479.45
2018-02-22T10:55:07.472Z,102475.59
2018-02-22T10:57:34.977Z,102469.12
2018-02-22T11:00:02.493Z,102474.71
2018-02-22T11:02:35.611Z,102468.26
2018-02-22T11:05:03.111Z,102472.56
2018-02-22T11:07:30.629Z,102468.66
2018-02-22T11:09:58.150Z,102462.61
2018-02-22T11:12:25.723Z,102459.17
2018-02-22T11:14:53.235Z,102457.87
2018-02-22T11:17:20.756Z,102458.31
2018-02-22T11:19:48.277Z,102457.41
2018-02-22T11:22:15.811Z,102447.93
2018-02-22T11:24:43.299Z,102451.36
2018-02-22T11:27:10.877Z,102448.33
2018-02-22T11:29:38.379Z,102443.57
2018-02-22T11:32:05.903Z,102440.98
2018-02-22T11:34:33.400Z,102443.98
2018-02-22T11:37:00.889Z,102436.66
2018-02-22T11:39:28.433Z,102438.37
2018-02-22T11:41:55.932Z,102442.23
2018-02-22T11:44:23.452Z,102437.06
2018-02-22T11:46:50.935Z,102438.31
2018-02-22T11:49:18.504Z,102437.84
2018-02-22T11:51:46.006Z,102433.47
2018-02-22T11:54:13.516Z,102435.12
2018-02-22T11:56:41.008Z,102433.34
2018-02-22T11:59:08.558Z,102425.91
2018-02-22T12:01:36.064Z,102424.14
2018-02-22T12:04:03.594Z,102418.03
2018-02-22T12:06:31.104Z,102418.38
2018-02-22T12:08:58.740Z,102415.31
2018-02-22T12:11:26.280Z,102406.58
2018-02-22T12:13:53.828Z,102406.45
2018-02-22T12:16:21.348Z,102401.16
2018-02-22T12:18:48.820Z,102392.77
2018-02-22T12:21:16.335Z,102399.48
2018-02-22T12:23:43.830Z,102390.23
2018-02-22T12:26:11.328Z,102387.09
2018-02-22T12:28:39.394Z,102385.30
2018-02-22T12:31:06.904Z,102382.13
2018-02-22T12:33:34.419Z,102381.57
2018-02-22T12:36:01.926Z,102384.49
2018-02-22T12:38:29.418Z,102378.83
2018-02-22T12:40:56.926Z,102379.69
2018-02-22T12:43:24.426Z,102377.12
2018-02-22T12:45:51.930Z,102375.36
2018-02-22T12:48:19.428Z,102382.72
2018-02-22T12:50:46.971Z,102383.58
2018-02-22T12:53:14.479Z,102378.90
2018-02-22T12:55:42.029Z,102380.28
2018-02-22T12:58:09.528Z,102375.98
2018-02-22T13:00:37.019Z,102373.86
2018-02-22T13:03:04.549Z,102376.89
2018-02-22T13:05:32.064Z,102372.56
2018-02-22T13:07:59.565Z,102366.47
2018-02-22T13:10:27.051Z,102365.16
2018-02-22T13:12:54.573Z,102365.09
2018-02-22T13:15:22.093Z,102361.11
2018-02-22T13:17:49.620Z,102359.69
2018-02-22T13:20:17.124Z,102358.58
2018-02-22T13:22:44.620Z,102357.88
2018-02-22T13:25:12.137Z,102354.23
2018-02-22T13:27:39.631Z,102347.69
2018-02-22T13:30:07.139Z,102345.48
2018-02-22T13:32:46.265Z,102348.06
2018-02-22T13:35:13.746Z,102350.53
2018-02-22T13:40:51.446Z,102338.33
2018-02-22T13:43:18.955Z,102335.52
2018-02-22T13:45:46.476Z,102323.62
2018-02-22T13:48:13.971Z,102321.90
2018-02-22T13:50:53.236Z,102319.45
2018-02-22T13:53:20.732Z,102318.41
2018-02-22T13:55:48.239Z,102313.73
2018-02-22T13:58:15.734Z,102314.80
2018-02-22T14:00:54.924Z,102311.59
2018-02-22T14:03:22.436Z,102310.95
2018-02-22T14:05:49.925Z,102307.66
2018-02-22T14:08:29.057Z,102300.39
2018-02-22T14:11:03.447Z,102298.48
2018-02-22T14:13:30.947Z,102298.00
2018-02-22T14:15:58.532Z,102294.97
2018-02-22T14:18:26.073Z,102296.77
2018-02-22T14:20:53.580Z,102292.31
2018-02-22T14:23:21.082Z,102293.73
2018-02-22T14:25:48.595Z,102290.03
2018-02-22T14:28:16.126Z,102286.62
2018-02-22T14:30:43.628Z,102279.68
2018-02-22T14:33:11.132Z,102284.88
2018-02-22T14:35:38.638Z,102284.78
2018-02-22T14:38:06.148Z,102277.80
2018-02-22T14:40:33.681Z,102273.55
2018-02-22T14:43:01.190Z,102272.12
2018-02-22T14:45:28.723Z,102276.22
2018-02-22T14:47:56.184Z,102270.73
2018-02-22T14:50:23.676Z,102275.22
2018-02-22T14:52:51.343Z,102269.04
2018-02-22T14:55:18.844Z,102265.48
2018-02-22T14:57:46.355Z,102265.14
2018-02-22T15:00:13.877Z,102261.37
2018-02-22T15:02:41.378Z,102262.05
2018-02-22T15:05:08.871Z,102256.28
2018-02-22T15:07:36.389Z,102262.22
2018-02-22T15:10:03.896Z,102264.26
2018-02-22T15:12:31.403Z,102261.47
2018-02-22T15:14:58.896Z,102263.90
2018-02-22T15:17:26.446Z,102254.61
2018-02-22T15:19:54.067Z,102263.09
2018-02-22T15:22:21.575Z,102263.80
2018-02-22T15:24:49.915Z,102254.05
2018-02-22T15:27:18.207Z,102252.94
2018-02-22T15:29:45.702Z,102249.14
2018-02-22T15:32:13.219Z,102248.38
2018-02-22T15:34:40.715Z,102242.41
2018-02-22T15:37:08.226Z,102242.03
2018-02-22T15:39:35.734Z,102246.50
2018-02-22T15:42:03.227Z,102250.91
2018-02-22T15:44:30.727Z,102249.72
2018-02-22T15:46:58.226Z,102247.17
2018-02-22T15:49:25.724Z,102240.71
2018-02-22T15:51:53.223Z,102240.23
2018-02-22T15:54:20.725Z,102241.83
2018-02-22T15:56:48.227Z,102233.47
2018-02-22T15:59:15.808Z,102238.42
2018-02-22T16:01:43.299Z,102240.67
2018-02-22T16:04:10.800Z,102240.34
2018-02-22T16:06:38.298Z,102238.82
2018-02-22T16:09:05.811Z,102240.34
2018-02-22T16:11:33.309Z,102236.11
2018-02-22T16:14:00.835Z,102237.98
2018-02-22T16:16:28.373Z,102238.17
2018-02-22T16:18:55.871Z,102228.88
2018-02-22T16:21:23.383Z,102229.70
2018-02-22T16:23:50.971Z,102233.22
2018-02-22T16:26:18.569Z,102233.08
2018-02-22T16:28:46.072Z,102229.06
2018-02-22T16:31:13.572Z,102230.27
2018-02-22T16:33:41.075Z,102238.35
2018-02-22T16:36:08.596Z,102238.12
2018-02-22T16:38:36.096Z,102235.62
2018-02-22T16:41:03.620Z,102230.37
2018-02-22T16:43:32.404Z,102229.03
2018-02-22T16:45:59.899Z,102232.50
2018-02-22T16:48:27.477Z,102239.44
2018-02-22T16:50:54.976Z,102233.41
2018-02-22T16:53:22.495Z,102239.53
2018-02-22T16:55:49.996Z,102230.53
2018-02-22T16:58:17.507Z,102231.98
2018-02-22T17:00:45.083Z,102237.73
2018-02-22T17:03:12.555Z,102239.14
2018-02-22T17:05:40.071Z,102241.88
2018-02-22T17:08:07.579Z,102235.53
2018-02-22T17:10:35.084Z,102243.08
2018-02-22T17:13:02.591Z,102246.77
2018-02-22T17:15:30.148Z,102248.73
2018-02-22T17:17:57.724Z,102249.34
2018-02-22T17:20:25.227Z,102250.37
2018-02-22T17:22:52.742Z,102259.70
2018-02-22T17:25:19.702Z,102251.64
2018-02-22T17:27:52.575Z,102257.01
2018-02-22T17:30:25.581Z,102255.45
2018-02-22T17:32:53.106Z,102260.37
2018-02-22T17:35:23.398Z,102265.26
2018-02-22T17:37:56.943Z,102265.41
2018-02-22T17:40:28.824Z,102267.28
2018-02-22T17:42:56.348Z,102270.02
2018-02-22T17:45:23.863Z,102272.70
2018-02-22T17:47:51.404Z,102268.95
2018-02-22T17:50:18.911Z,102271.19
2018-02-22T17:52:46.409Z,102273.87
2018-02-22T17:55:13.917Z,102276.52
2018-02-22T17:57:41.431Z,102281.31
2018-02-22T18:00:08.936Z,102289.59
2018-02-22T18:02:36.448Z,102288.33
2018-02-22T18:05:03.980Z,102297.44
2018-02-22T18:07:31.559Z,102296.17
2018-02-22T18:09:59.158Z,102302.66
2018-02-22T18:12:26.649Z,102313.02
2018-02-22T18:14:54.155Z,102311.32
2018-02-22T18:17:21.667Z,102320.39
2018-02-22T18:19:49.179Z,102322.14
2018-02-22T18:22:16.681Z,102326.47
2018-02-22T18:24:44.207Z,102324.34
2018-02-22T18:27:11.700Z,102326.52
2018-02-22T18:29:39.203Z,102323.51
2018-02-22T18:32:06.690Z,102325.69
2018-02-22T18:34:34.181Z,102327.83
2018-02-22T18:37:01.681Z,102321.39
2018-02-22T18:39:29.179Z,102322.27
2018-02-22T18:41:59.243Z,102318.41
2018-02-22T18:44:32.139Z,102326.14
2018-02-22T18:46:59.659Z,102324.44
2018-02-22T18:49:27.162Z,102322.72
2018-02-22T18:51:54.660Z,102326.60
2018-02-22T18:54:22.162Z,102331.77
2018-02-22T18:56:49.674Z,102333.95
2018-02-22T18:59:17.158Z,102330.51
2018-02-22T19:01:44.648Z,102335.67
2018-02-22T19:04:12.127Z,102342.97
2018-02-22T19:06:39.647Z,102344.69
2018-02-22T19:09:07.158Z,102350.72
2018-02-22T19:11:34.643Z,102348.13
2018-02-22T19:14:02.308Z,102347.27
2018-02-22T19:16:29.808Z,102346.81
2018-02-22T19:18:57.303Z,102344.23
2018-02-22T19:21:24.836Z,102340.80
2018-02-22T19:23:52.341Z,102339.48
2018-02-22T19:26:19.903Z,102333.05
2018-02-22T19:28:47.428Z,102327.87
2018-02-22T19:31:14.931Z,102321.84
2018-02-22T19:33:42.440Z,102328.72
2018-02-22T19:36:09.935Z,102330.43
2018-02-22T19:38:37.427Z,102320.12
2018-02-22T19:41:05.727Z,102328.27
2018-02-22T19:43:33.230Z,102318.37
2018-02-22T19:46:00.726Z,102320.50
2018-02-22T19:48:28.219Z,102317.91
2018-02-22T19:50:55.732Z,102315.77
2018-02-22T19:53:23.228Z,102320.93
2018-02-22T19:55:50.707Z,102326.06
2018-02-22T19:58:18.227Z,102318.34
2018-02-22T20:00:45.718Z,102317.91
2018-02-22T20:03:13.247Z,102318.74
2018-02-22T20:05:40.735Z,102318.30
2018-02-22T20:08:08.241Z,102315.27
2018-02-22T20:10:35.748Z,102317.41
2018-02-22T20:13:03.246Z,102317.84
2018-02-22T20:15:30.782Z,102314.39
2018-02-22T20:17:58.306Z,102310.95
2018-02-22T20:20:25.804Z,102310.93
2018-02-22T20:22:53.335Z,102313.92
2018-02-22T20:25:20.935Z,102318.66
2018-02-22T20:27:48.458Z,102319.06
2018-02-22T20:30:15.979Z,102314.77
2018-02-22T20:32:43.487Z,102321.64
2018-02-22T20:35:10.984Z,102310.45
2018-02-22T20:37:38.530Z,102311.74
2018-02-22T20:40:06.030Z,102307.00
2018-02-22T20:42:33.523Z,102299.67
2018-02-22T20:45:01.064Z,102299.66
2018-02-22T20:47:28.587Z,102306.97
2018-02-22T20:49:56.127Z,102301.80
2018-02-22T20:52:30.036Z,102296.19
2018-02-22T20:55:10.308Z,102299.17
2018-02-22T20:57:37.894Z,102291.88
2018-02-22T21:00:05.372Z,102297.45
2018-02-22T21:02:33.017Z,102291.86
2018-02-22T21:05:00.525Z,102290.55
2018-02-22T21:07:28.023Z,102288.80
2018-02-22T21:09:55.592Z,102289.22
2018-02-22T21:12:23.096Z,102289.64
2018-02-22T21:14:50.578Z,102292.19
2018-02-22T21:17:18.069Z,102290.89
2018-02-22T21:19:45.563Z,102290.87
2018-02-22T21:22:13.083Z,102295.59
2018-02-22T21:24:40.579Z,102301.58
2018-02-22T21:27:08.067Z,102293.86
2018-02-22T21:29:35.557Z,102293.41
2018-02-22T21:32:03.047Z,102294.25
2018-02-22T21:34:30.538Z,102295.13
2018-02-22T21:36:58.019Z,102293.38
2018-02-22T21:39:25.580Z,102292.92
2018-02-22T21:41:53.059Z,102292.50
2018-02-22T21:44:20.572Z,102293.75
2018-02-22T21:46:48.053Z,102289.02
2018-02-22T21:49:15.531Z,102292.45
2018-02-22T21:51:43.016Z,102292.42
2018-02-22T21:54:10.531Z,102292.42
2018-02-22T21:56:38.036Z,102287.67
2018-02-22T21:59:05.527Z,102282.09
2018-02-22T22:01:33.031Z,102285.95
2018-02-22T22:04:00.546Z,102293.64
2018-02-22T22:06:28.043Z,102288.48
2018-02-22T22:08:55.523Z,102277.30
2018-02-22T22:11:23.022Z,102278.98
2018-02-22T22:13:50.503Z,102276.83
2018-02-22T22:16:18.017Z,102272.12
2018-02-22T22:18:45.510Z,102270.80
2018-02-22T22:21:12.987Z,102270.80
2018-02-22T22:23:40.509Z,102269.07
2018-02-22T22:26:08.027Z,102273.35
2018-02-22T22:28:35.518Z,102268.62
2018-02-22T22:31:03.011Z,102262.64
2018-02-22T22:33:30.497Z,102263.05
2018-02-22T22:35:57.990Z,102259.62
2018-02-22T22:38:25.536Z,102255.36
2018-02-22T22:40:53.071Z,102264.78
2018-02-22T22:43:20.567Z,102257.50
2018-02-22T22:45:48.058Z,102260.48
2018-02-22T22:48:15.555Z,102260.91
2018-02-22T22:50:43.051Z,102261.36
2018-02-22T22:53:10.556Z,102258.77
2018-02-22T22:55:38.043Z,102256.16
2018-02-22T22:58:05.548Z,102254.03
2018-02-22T23:00:33.039Z,102259.99
2018-02-22T23:03:00.543Z,102258.30
2018-02-22T23:05:28.040Z,102260.42
2018-02-22T23:07:55.548Z,102256.55
2018-02-22T23:10:23.051Z,102250.09
2018-02-22T23:12:50.589Z,102253.93
2018-02-22T23:15:18.079Z,102250.48
2018-02-22T23:17:45.572Z,102250.91
2018-02-22T23:20:13.068Z,102252.17
2018-02-22T23:22:40.563Z,102251.31
2018-02-22T23:25:08.075Z,102255.58
2018-02-22T23:27:35.557Z,102259.44
2018-02-22T23:30:03.055Z,102260.32
2018-02-22T23:32:30.556Z,102263.73
2018-02-22T23:34:58.055Z,102259.42
2018-02-22T23:37:25.591Z,102259.39
2018-02-22T23:39:53.111Z,102262.40
2018-02-22T23:42:26.079Z,102255.50
2018-02-22T23:44:53.555Z,102257.22
2018-02-22T23:47:21.059Z,102250.36
2018-02-22T23:49:48.571Z,102249.08
2018-02-22T23:52:16.069Z,102252.06
2018-02-22T23:54:43.587Z,102248.20
2018-02-22T23:57:11.064Z,102250.31
2018-02-22T23:59:38.560Z,102243.45
